createdAt,value
2017-11-16T00:00:11.864Z,59.22
2017-11-16T00:02:39.423Z,59.78
2017-11-16T00:05:07.023Z,60.90
2017-11-16T00:07:34.580Z,59.28
2017-11-16T00:10:02.910Z,61.92
2017-11-16T00:12:30.522Z,68.00
2017-11-16T00:14:58.085Z,61.22
2017-11-16T00:17:25.677Z,55.33
2017-11-16T00:19:54.035Z,60.42
2017-11-16T00:22:21.584Z,69.97
2017-11-16T00:24:49.178Z,51.83
2017-11-16T00:27:16.780Z,59.88
2017-11-16T00:29:44.371Z,58.60
2017-11-16T00:32:11.975Z,56.80
2017-11-16T00:34:39.534Z,57.83
2017-11-16T00:37:07.093Z,54.53
2017-11-16T00:39:34.677Z,57.92
2017-11-16T00:42:02.239Z,61.47
2017-11-16T00:44:29.832Z,58.28
2017-11-16T00:46:57.387Z,48.22
2017-11-16T00:49:25.743Z,55.15
2017-11-16T00:51:53.300Z,63.53
2017-11-16T00:54:20.890Z,58.75
2017-11-16T00:56:48.444Z,51.80
2017-11-16T00:59:16.818Z,59.38
2017-11-16T01:01:45.167Z,53.50
2017-11-16T01:04:12.766Z,55.28
2017-11-16T01:06:40.340Z,56.60
2017-11-16T01:09:07.951Z,57.78
2017-11-16T01:11:35.506Z,59.20
2017-11-16T01:14:03.063Z,51.63
2017-11-16T01:16:30.694Z,62.70
2017-11-16T01:18:59.032Z,59.90
2017-11-16T01:21:27.401Z,53.28
2017-11-16T01:23:54.964Z,55.75
2017-11-16T01:26:23.294Z,59.45
2017-11-16T01:28:50.898Z,52.05
2017-11-16T01:31:18.458Z,58.63
2017-11-16T01:33:46.060Z,60.28
2017-11-16T01:36:13.619Z,58.85
2017-11-16T01:38:41.256Z,57.83
2017-11-16T01:41:09.595Z,66.30
2017-11-16T01:43:37.208Z,59.13
2017-11-16T01:46:05.546Z,56.88
2017-11-16T01:48:33.119Z,48.63
2017-11-16T01:51:00.751Z,57.08
2017-11-16T01:53:28.318Z,59.85
2017-11-16T01:55:55.878Z,54.33
2017-11-16T01:58:23.473Z,53.92
2017-11-16T02:00:51.826Z,58.65
2017-11-16T02:03:19.426Z,57.38
2017-11-16T02:05:47.832Z,57.17
2017-11-16T02:08:15.399Z,50.75
2017-11-16T02:10:42.996Z,56.97
2017-11-16T02:13:10.603Z,53.67
2017-11-16T02:15:38.163Z,61.47
2017-11-16T02:18:05.771Z,60.20
2017-11-16T02:20:33.369Z,54.30
2017-11-16T02:23:01.695Z,80.68
2017-11-16T02:25:29.339Z,46.28
2017-11-16T02:27:56.914Z,50.80
2017-11-16T02:30:24.486Z,56.65
2017-11-16T02:32:52.108Z,51.90
2017-11-16T02:35:19.719Z,51.85
2017-11-16T02:37:47.310Z,49.95
2017-11-16T02:40:15.678Z,53.95
2017-11-16T02:42:43.237Z,55.63
2017-11-16T02:45:10.840Z,57.33
2017-11-16T02:47:38.414Z,51.75
2017-11-16T02:50:06.010Z,55.92
2017-11-16T02:52:33.615Z,53.17
2017-11-16T02:55:01.178Z,58.35
2017-11-16T02:57:28.734Z,59.25
2017-11-16T02:59:56.353Z,51.42
2017-11-16T03:02:23.919Z,53.65
2017-11-16T03:04:51.476Z,65.32
2017-11-16T03:07:19.069Z,52.45
2017-11-16T03:09:46.636Z,65.72
2017-11-16T03:12:14.231Z,55.63
2017-11-16T03:14:41.827Z,58.30
2017-11-16T03:17:09.391Z,49.70
2017-11-16T03:19:37.768Z,52.28
2017-11-16T03:22:05.339Z,55.25
2017-11-16T03:24:33.711Z,56.05
2017-11-16T03:27:02.103Z,57.95
2017-11-16T03:29:30.451Z,56.80
2017-11-16T03:31:58.021Z,50.12
2017-11-16T03:34:25.613Z,51.85
2017-11-16T03:36:53.183Z,46.33
2017-11-16T03:39:20.809Z,46.55
2017-11-16T03:41:48.363Z,56.15
2017-11-16T03:44:15.959Z,49.30
2017-11-16T03:46:43.517Z,58.50
2017-11-16T03:49:11.071Z,49.40
2017-11-16T03:51:38.686Z,48.08
2017-11-16T03:54:06.295Z,58.65
2017-11-16T03:56:34.676Z,51.20
2017-11-16T03:59:02.243Z,53.15
2017-11-16T04:01:32.714Z,54.05
2017-11-16T04:04:00.312Z,64.00
2017-11-16T04:06:27.886Z,55.25
2017-11-16T04:08:55.455Z,49.03
2017-11-16T04:11:23.072Z,52.45
2017-11-16T04:13:50.639Z,49.47
2017-11-16T04:16:18.191Z,56.63
2017-11-16T04:18:45.790Z,52.42
2017-11-16T04:21:13.407Z,49.85
2017-11-16T04:23:40.972Z,58.35
2017-11-16T04:26:08.534Z,53.50
2017-11-16T04:28:36.127Z,62.47
2017-11-16T04:31:04.450Z,56.65
2017-11-16T04:33:32.063Z,59.40
2017-11-16T04:36:00.391Z,59.33
2017-11-16T04:38:28.145Z,49.67
2017-11-16T04:40:55.750Z,52.47
2017-11-16T04:43:23.420Z,56.25
2017-11-16T04:45:51.757Z,47.45
2017-11-16T04:48:19.363Z,56.25
2017-11-16T04:50:47.693Z,46.78
2017-11-16T04:53:15.260Z,46.92
2017-11-16T04:55:42.866Z,49.15
2017-11-16T04:58:11.200Z,49.90
2017-11-16T05:00:38.820Z,50.40
2017-11-16T05:03:06.386Z,60.60
2017-11-16T05:05:33.951Z,49.20
2017-11-16T05:08:01.570Z,46.53
2017-11-16T05:10:29.149Z,61.17
2017-11-16T05:12:57.478Z,70.90
2017-11-16T05:15:25.071Z,63.60
2017-11-16T05:17:52.633Z,54.83
2017-11-16T05:20:20.206Z,51.63
2017-11-16T05:22:48.583Z,60.90
2017-11-16T05:25:16.913Z,60.80
2017-11-16T05:27:44.514Z,50.65
2017-11-16T05:30:12.075Z,50.40
2017-11-16T05:32:39.637Z,48.95
2017-11-16T05:35:08.027Z,47.65
2017-11-16T05:37:36.353Z,45.42
2017-11-16T05:40:03.947Z,47.90
2017-11-16T05:42:31.515Z,61.53
2017-11-16T05:44:59.114Z,50.50
2017-11-16T05:47:26.668Z,48.38
2017-11-16T05:49:54.225Z,52.65
2017-11-16T05:52:21.825Z,49.15
2017-11-16T05:54:49.385Z,63.53
2017-11-16T05:57:16.987Z,53.00
2017-11-16T05:59:45.322Z,54.50
2017-11-16T06:02:12.876Z,59.67
2017-11-16T06:04:40.459Z,52.50
2017-11-16T06:07:08.023Z,49.15
2017-11-16T06:09:35.628Z,51.25
2017-11-16T06:12:03.195Z,50.30
2017-11-16T06:14:30.813Z,68.78
2017-11-16T06:16:58.370Z,54.25
2017-11-16T06:19:25.976Z,49.03
2017-11-16T06:21:53.591Z,55.38
2017-11-16T06:24:21.158Z,46.58
2017-11-16T06:26:48.715Z,45.10
2017-11-16T06:29:16.322Z,41.65
2017-11-16T06:31:43.873Z,51.10
2017-11-16T06:34:11.470Z,45.00
2017-11-16T06:36:39.055Z,44.08
2017-11-16T06:39:06.670Z,56.55
2017-11-16T06:41:34.247Z,44.92
2017-11-16T06:44:02.868Z,45.33
2017-11-16T06:46:30.422Z,41.08
2017-11-16T06:48:57.981Z,42.20
2017-11-16T06:51:25.589Z,47.90
2017-11-16T06:53:53.146Z,40.78
2017-11-16T06:56:20.751Z,45.75
2017-11-16T06:58:48.350Z,50.72
2017-11-16T07:01:16.738Z,40.80
2017-11-16T07:03:45.092Z,47.72
2017-11-16T07:06:12.692Z,47.88
2017-11-16T07:08:40.295Z,40.47
2017-11-16T07:11:07.871Z,46.13
2017-11-16T07:13:35.551Z,52.47
2017-11-16T07:16:03.899Z,49.45
2017-11-16T07:18:31.488Z,47.88
2017-11-16T07:20:59.119Z,42.25
2017-11-16T07:23:26.719Z,38.38
2017-11-16T07:25:55.052Z,43.67
2017-11-16T07:28:22.668Z,38.03
2017-11-16T07:30:50.996Z,46.42
2017-11-16T07:33:18.584Z,40.78
2017-11-16T07:35:46.231Z,37.58
2017-11-16T07:38:13.807Z,33.72
2017-11-16T07:40:47.948Z,40.38
2017-11-16T07:43:15.517Z,45.50
2017-11-16T07:45:43.143Z,44.17
2017-11-16T07:48:10.713Z,48.28
2017-11-16T07:50:39.933Z,45.33
2017-11-16T07:53:07.927Z,42.58
2017-11-16T07:55:36.341Z,37.80
2017-11-16T07:58:09.875Z,38.70
2017-11-16T08:00:37.956Z,43.92
2017-11-16T08:03:08.298Z,40.17
2017-11-16T08:05:36.824Z,38.75
2017-11-16T08:08:04.461Z,45.33
2017-11-16T08:10:32.421Z,44.92
2017-11-16T08:13:01.105Z,44.00
2017-11-16T08:15:28.679Z,40.30
2017-11-16T08:17:56.296Z,33.58
2017-11-16T08:20:24.898Z,54.65
2017-11-16T08:22:52.449Z,42.10
2017-11-16T08:25:20.051Z,36.85
2017-11-16T08:27:47.618Z,42.15
2017-11-16T08:30:15.234Z,39.20
2017-11-16T08:32:42.808Z,40.17
2017-11-16T08:35:10.423Z,40.08
2017-11-16T08:37:38.069Z,39.88
2017-11-16T08:40:05.674Z,45.70
2017-11-16T08:42:34.164Z,34.75
2017-11-16T08:45:01.805Z,35.17
2017-11-16T08:47:30.123Z,39.70
2017-11-16T08:49:58.452Z,30.83
2017-11-16T08:52:26.830Z,41.45
2017-11-16T08:54:55.260Z,29.55
2017-11-16T08:57:22.822Z,37.90
2017-11-16T08:59:51.187Z,42.67
2017-11-16T09:02:19.072Z,37.53
2017-11-16T09:04:46.812Z,30.80
2017-11-16T09:07:14.478Z,29.52
2017-11-16T09:09:42.232Z,34.20
2017-11-16T09:12:09.825Z,35.08
2017-11-16T09:14:37.383Z,40.08
2017-11-16T09:17:04.993Z,32.80
2017-11-16T09:19:33.395Z,35.53
2017-11-16T09:22:01.346Z,27.37
2017-11-16T09:24:31.079Z,37.60
2017-11-16T09:26:58.789Z,39.65
2017-11-16T09:29:26.595Z,36.55
2017-11-16T09:31:54.688Z,40.42
2017-11-16T09:34:22.359Z,29.08
2017-11-16T09:36:50.078Z,45.90
2017-11-16T09:39:17.823Z,36.53
2017-11-16T09:41:45.509Z,37.65
2017-11-16T09:44:13.897Z,35.63
2017-11-16T09:46:42.398Z,40.00
2017-11-16T09:49:10.125Z,37.45
2017-11-16T09:51:37.776Z,48.22
2017-11-16T09:54:05.421Z,41.20
2017-11-16T09:56:33.029Z,43.45
2017-11-16T09:59:00.813Z,43.67
2017-11-16T10:01:32.069Z,40.25
2017-11-16T10:03:59.848Z,51.17
2017-11-16T10:06:27.749Z,43.95
2017-11-16T10:08:55.459Z,49.78
2017-11-16T10:11:24.224Z,39.33
2017-11-16T10:13:51.902Z,44.15
2017-11-16T10:16:20.509Z,40.97
2017-11-16T10:18:48.239Z,46.88
2017-11-16T10:21:16.792Z,37.65
2017-11-16T10:23:44.582Z,42.25
2017-11-16T10:26:13.501Z,34.13
2017-11-16T10:28:41.184Z,36.67
2017-11-16T10:31:08.864Z,48.83
2017-11-16T10:33:36.539Z,40.97
2017-11-16T10:36:04.557Z,39.72
2017-11-16T10:38:35.852Z,43.28
2017-11-16T10:41:03.898Z,42.70
2017-11-16T10:43:31.649Z,39.55
2017-11-16T10:45:59.626Z,44.92
2017-11-16T10:48:27.378Z,36.33
2017-11-16T10:50:55.274Z,37.55
2017-11-16T10:53:23.761Z,30.17
2017-11-16T10:55:54.360Z,40.95
2017-11-16T10:58:22.309Z,46.20
2017-11-16T11:00:50.657Z,41.35
2017-11-16T11:03:18.263Z,46.97
2017-11-16T11:05:45.961Z,38.97
2017-11-16T11:08:14.382Z,36.20
2017-11-16T11:10:41.950Z,45.63
2017-11-16T11:13:10.351Z,41.67
2017-11-16T11:15:37.911Z,52.15
2017-11-16T11:18:05.554Z,41.80
2017-11-16T11:20:34.710Z,36.88
2017-11-16T11:23:03.461Z,33.70
2017-11-16T11:25:31.081Z,44.45
2017-11-16T11:27:58.644Z,35.17
2017-11-16T11:30:27.465Z,36.53
2017-11-16T11:32:55.827Z,32.15
2017-11-16T11:35:24.186Z,33.00
2017-11-16T11:37:52.602Z,34.28
2017-11-16T11:40:20.203Z,32.97
2017-11-16T11:42:47.828Z,29.70
2017-11-16T11:45:15.392Z,34.45
2017-11-16T11:47:42.973Z,30.05
2017-11-16T11:50:10.622Z,37.13
2017-11-16T11:52:38.220Z,40.05
2017-11-16T11:55:06.970Z,46.53
2017-11-16T11:57:35.335Z,38.90
2017-11-16T12:00:03.069Z,36.72
2017-11-16T12:02:30.745Z,33.65
2017-11-16T12:04:59.116Z,33.17
2017-11-16T12:07:26.732Z,36.60
2017-11-16T12:09:54.292Z,40.40
2017-11-16T12:12:36.576Z,42.75
2017-11-16T12:15:24.733Z,36.67
2017-11-16T12:17:54.406Z,60.47
2017-11-16T12:20:22.104Z,36.30
2017-11-16T12:22:49.683Z,32.67
2017-11-16T12:25:17.298Z,41.33
2017-11-16T12:30:20.432Z,32.15
2017-11-16T12:32:50.152Z,32.17
2017-11-16T12:35:17.961Z,33.85
2017-11-16T12:37:46.332Z,39.25
2017-11-16T12:40:14.286Z,32.15
2017-11-16T12:42:42.875Z,38.92
2017-11-16T12:45:10.509Z,33.33
2017-11-16T12:47:38.758Z,38.88
2017-11-16T12:50:07.083Z,40.70
2017-11-16T12:52:34.732Z,39.85
2017-11-16T12:55:03.063Z,38.00
2017-11-16T12:57:30.967Z,42.03
2017-11-16T12:59:58.777Z,32.67
2017-11-16T13:02:26.403Z,37.28
2017-11-16T13:04:54.812Z,30.35
2017-11-16T13:07:22.362Z,34.55
2017-11-16T13:09:50.344Z,33.30
2017-11-16T13:12:18.618Z,28.58
2017-11-16T13:14:46.236Z,32.72
2017-11-16T13:17:13.829Z,26.35
2017-11-16T13:19:41.407Z,32.08
2017-11-16T13:22:09.073Z,34.92
2017-11-16T13:24:37.613Z,24.63
2017-11-16T13:27:26.138Z,27.10
2017-11-16T13:29:53.798Z,31.08
2017-11-16T13:32:22.140Z,30.80
2017-11-16T13:34:49.767Z,26.80
2017-11-16T13:37:17.474Z,24.37
2017-11-16T13:39:45.044Z,23.80
2017-11-16T13:42:13.435Z,32.28
2017-11-16T13:44:41.007Z,31.95
2017-11-16T13:47:09.359Z,31.02
2017-11-16T13:49:36.983Z,34.25
2017-11-16T13:52:04.566Z,32.80
2017-11-16T13:54:32.219Z,36.75
2017-11-16T13:56:59.775Z,29.65
2017-11-16T13:59:27.353Z,29.55
2017-11-16T14:01:54.960Z,35.17
2017-11-16T14:04:23.368Z,35.42
2017-11-16T14:06:51.011Z,48.63
2017-11-16T14:09:18.571Z,35.38
2017-11-16T14:11:46.131Z,33.10
2017-11-16T14:14:13.754Z,35.60
2017-11-16T14:16:41.332Z,29.00
2017-11-16T14:19:09.663Z,27.45
2017-11-16T14:21:38.074Z,29.95
2017-11-16T14:24:05.632Z,30.73
2017-11-16T14:26:33.395Z,31.90
2017-11-16T14:29:00.995Z,28.67
2017-11-16T14:31:29.050Z,24.52
2017-11-16T14:33:57.431Z,27.40
2017-11-16T14:36:25.786Z,34.17
2017-11-16T14:38:53.628Z,31.60
2017-11-16T14:41:21.308Z,26.90
2017-11-16T14:43:48.887Z,30.15
2017-11-16T14:46:16.484Z,40.00
2017-11-16T14:48:44.048Z,30.52
2017-11-16T14:51:11.671Z,34.72
2017-11-16T14:53:40.130Z,32.83
2017-11-16T14:56:07.752Z,28.48
2017-11-16T14:58:35.328Z,28.83
2017-11-16T15:01:03.042Z,32.50
2017-11-16T15:03:31.410Z,36.20
2017-11-16T15:05:59.818Z,34.58
2017-11-16T15:08:27.403Z,35.75
2017-11-16T15:10:54.992Z,32.90
2017-11-16T15:13:22.578Z,42.08
2017-11-16T15:15:50.225Z,38.03
2017-11-16T15:18:17.827Z,34.40
2017-11-16T15:20:45.523Z,42.20
2017-11-16T15:23:13.722Z,34.38
2017-11-16T15:25:41.358Z,36.42
2017-11-16T15:28:08.946Z,43.87
2017-11-16T15:30:36.553Z,40.25
2017-11-16T15:33:04.181Z,34.00
2017-11-16T15:35:31.772Z,39.75
2017-11-16T15:37:59.354Z,24.87
2017-11-16T15:40:27.008Z,36.45
2017-11-16T15:42:54.629Z,36.20
2017-11-16T15:45:22.208Z,31.17
2017-11-16T15:47:50.716Z,37.05
2017-11-16T15:50:18.626Z,28.15
2017-11-16T15:52:46.409Z,29.25
2017-11-16T15:55:14.800Z,31.02
2017-11-16T15:57:43.208Z,38.00
2017-11-16T16:00:10.772Z,35.67
2017-11-16T16:02:38.324Z,33.38
2017-11-16T16:05:05.916Z,35.58
2017-11-16T16:07:33.575Z,34.53
2017-11-16T16:10:01.260Z,28.42
2017-11-16T16:12:28.862Z,35.20
2017-11-16T16:14:56.603Z,39.03
2017-11-16T16:17:24.337Z,41.08
2017-11-16T16:19:52.300Z,29.20
2017-11-16T16:22:19.972Z,36.10
2017-11-16T16:24:47.673Z,33.13
2017-11-16T16:27:16.056Z,34.40
2017-11-16T16:29:43.663Z,36.40
2017-11-16T16:32:12.431Z,32.55
2017-11-16T16:34:40.056Z,32.55
2017-11-16T16:37:07.656Z,32.97
2017-11-16T16:39:35.281Z,40.42
2017-11-16T16:42:03.758Z,38.45
2017-11-16T16:44:31.357Z,29.27
2017-11-16T16:46:58.914Z,29.12
2017-11-16T16:49:26.527Z,42.33
2017-11-16T16:51:54.163Z,30.62
2017-11-16T16:54:21.760Z,26.70
2017-11-16T16:56:49.464Z,49.22
2017-11-16T16:59:18.859Z,28.95
2017-11-16T17:01:47.810Z,34.35
2017-11-16T17:04:15.380Z,33.20
2017-11-16T17:06:42.940Z,36.72
2017-11-16T17:09:10.534Z,41.55
2017-11-16T17:11:39.838Z,35.05
2017-11-16T17:14:09.006Z,34.85
2017-11-16T17:16:39.903Z,34.72
2017-11-16T17:19:11.357Z,32.92
2017-11-16T17:21:44.202Z,29.92
2017-11-16T17:24:14.806Z,34.05
2017-11-16T17:26:57.984Z,35.53
2017-11-16T17:32:56.313Z,46.58
2017-11-16T17:35:27.199Z,42.65
2017-11-16T17:37:56.972Z,40.38
2017-11-16T17:40:27.196Z,35.90
2017-11-16T17:42:57.552Z,38.05
2017-11-16T17:45:27.388Z,30.80
2017-11-16T17:47:57.171Z,38.40
2017-11-16T17:50:27.634Z,27.45
2017-11-16T17:52:57.471Z,30.27
2017-11-16T17:55:27.135Z,30.75
2017-11-16T17:57:57.827Z,28.20
2017-11-16T18:00:28.228Z,38.40
2017-11-16T18:02:58.055Z,44.90
2017-11-16T18:05:27.890Z,39.97
2017-11-16T18:07:58.545Z,33.45
2017-11-16T18:10:29.160Z,42.22
2017-11-16T18:12:59.902Z,31.95
2017-11-16T18:15:30.644Z,30.08
2017-11-16T18:18:02.591Z,36.28
2017-11-16T18:20:34.042Z,38.30
2017-11-16T18:23:03.766Z,36.42
2017-11-16T18:25:35.202Z,38.67
2017-11-16T18:28:05.036Z,39.95
2017-11-16T18:30:36.477Z,37.90
2017-11-16T18:33:06.108Z,46.67
2017-11-16T18:35:43.813Z,35.35
2017-11-16T18:38:13.858Z,31.52
2017-11-16T18:40:43.458Z,39.17
2017-11-16T18:43:13.147Z,37.45
2017-11-16T18:45:43.781Z,35.67
2017-11-16T18:48:15.108Z,47.78
2017-11-16T18:50:45.462Z,39.28
2017-11-16T18:53:18.095Z,31.73
2017-11-16T18:55:47.840Z,43.38
2017-11-16T18:58:18.431Z,40.03
2017-11-16T19:00:48.155Z,40.47
2017-11-16T19:03:18.919Z,37.25
2017-11-16T19:05:50.150Z,31.65
2017-11-16T19:08:21.076Z,38.85
2017-11-16T19:10:51.030Z,42.75
2017-11-16T19:13:20.289Z,30.75
2017-11-16T19:15:49.895Z,33.70
2017-11-16T19:18:20.449Z,38.42
2017-11-16T19:20:51.077Z,36.65
2017-11-16T19:23:22.136Z,36.25
2017-11-16T19:25:54.601Z,35.72
2017-11-16T19:28:25.037Z,37.42
2017-11-16T19:30:55.075Z,34.40
2017-11-16T19:33:24.637Z,30.88
2017-11-16T19:36:02.430Z,41.50
2017-11-16T19:38:31.027Z,38.35
2017-11-16T19:41:02.454Z,35.08
2017-11-16T19:43:33.042Z,39.28
2017-11-16T19:46:02.391Z,39.22
2017-11-16T19:48:30.675Z,44.20
2017-11-16T19:50:58.980Z,50.58
2017-11-16T19:53:28.101Z,51.70
2017-11-16T19:55:56.895Z,40.58
2017-11-16T19:58:25.306Z,34.08
2017-11-16T20:00:53.535Z,39.92
2017-11-16T20:03:21.852Z,40.75
2017-11-16T20:05:51.745Z,44.55
2017-11-16T20:08:21.784Z,48.90
2017-11-16T20:10:51.394Z,53.70
2017-11-16T20:13:21.642Z,43.92
2017-11-16T20:15:51.488Z,43.05
2017-11-16T20:18:21.127Z,44.90
2017-11-16T20:20:51.482Z,48.40
2017-11-16T20:23:20.960Z,45.00
2017-11-16T20:25:52.167Z,48.03
2017-11-16T20:28:22.472Z,44.25
2017-11-16T20:30:52.186Z,42.97
2017-11-16T20:33:30.467Z,41.97
2017-11-16T20:36:00.243Z,48.42
2017-11-16T20:38:34.599Z,40.60
2017-11-16T20:41:08.923Z,50.47
2017-11-16T20:43:52.782Z,55.00
2017-11-16T20:46:41.590Z,45.22
2017-11-16T20:49:11.777Z,44.92
2017-11-16T20:51:48.047Z,43.33
2017-11-16T20:54:31.304Z,43.90
2017-11-16T20:57:00.565Z,38.75
2017-11-16T20:59:30.341Z,54.53
2017-11-16T21:01:59.990Z,51.20
2017-11-16T21:04:30.457Z,52.00
2017-11-16T21:06:58.459Z,52.55
2017-11-16T21:09:27.057Z,42.95
2017-11-16T21:11:56.290Z,54.08
2017-11-16T21:14:24.811Z,56.33
2017-11-16T21:16:54.310Z,45.65
2017-11-16T21:19:23.538Z,52.30
2017-11-16T21:21:52.972Z,44.03
2017-11-16T21:24:22.649Z,50.38
2017-11-16T21:26:51.983Z,45.53
2017-11-16T21:29:21.659Z,53.92
2017-11-16T21:31:51.284Z,46.20
2017-11-16T21:34:20.706Z,48.10
2017-11-16T21:36:50.826Z,49.17
2017-11-16T21:39:19.150Z,52.78
2017-11-16T21:41:47.256Z,58.95
2017-11-16T21:44:14.873Z,50.47
2017-11-16T21:46:43.285Z,48.67
2017-11-16T21:49:10.835Z,51.80
2017-11-16T21:51:38.468Z,62.15
2017-11-16T21:54:06.074Z,48.65
2017-11-16T21:56:33.631Z,53.70
2017-11-16T21:59:01.189Z,56.30
2017-11-16T22:01:28.797Z,59.97
2017-11-16T22:03:56.356Z,68.10
2017-11-16T22:06:23.950Z,56.95
2017-11-16T22:08:51.543Z,68.20
2017-11-16T22:11:19.119Z,69.72
2017-11-16T22:13:47.499Z,68.47
2017-11-16T22:16:15.835Z,61.22
2017-11-16T22:18:43.395Z,59.17
2017-11-16T22:21:11.014Z,57.33
2017-11-16T22:23:38.619Z,86.45
2017-11-16T22:26:06.186Z,59.08
2017-11-16T22:28:33.747Z,65.95
2017-11-16T22:31:01.354Z,68.82
2017-11-16T22:33:29.670Z,59.78
2017-11-16T22:35:57.227Z,62.22
2017-11-16T22:38:24.848Z,69.47
2017-11-16T22:40:53.202Z,63.05
2017-11-16T22:43:20.798Z,69.03
2017-11-16T22:45:48.398Z,67.22
2017-11-16T22:48:15.958Z,63.22
2017-11-16T22:50:44.324Z,66.70
2017-11-16T22:53:11.930Z,63.00
2017-11-16T22:55:39.487Z,67.87
2017-11-16T22:58:07.101Z,74.43
2017-11-16T23:00:34.689Z,64.22
2017-11-16T23:03:02.253Z,70.72
2017-11-16T23:05:29.887Z,69.40
2017-11-16T23:07:57.507Z,52.33
2017-11-16T23:10:25.145Z,60.72
2017-11-16T23:12:52.736Z,61.72
2017-11-16T23:15:21.057Z,68.60
2017-11-16T23:17:48.639Z,65.57
2017-11-16T23:20:16.195Z,78.72
2017-11-16T23:22:43.809Z,74.75
2017-11-16T23:25:11.368Z,76.57
2017-11-16T23:27:39.729Z,73.03
2017-11-16T23:30:07.315Z,62.90
2017-11-16T23:32:34.866Z,60.38
2017-11-16T23:35:03.241Z,69.78
2017-11-16T23:37:31.590Z,73.85
2017-11-16T23:39:59.195Z,66.30
2017-11-16T23:42:26.752Z,67.60
2017-11-16T23:44:54.362Z,61.63
2017-11-16T23:47:21.930Z,61.15
2017-11-16T23:49:49.535Z,58.80
2017-11-16T23:52:17.147Z,64.18
2017-11-16T23:54:44.719Z,65.22
2017-11-16T23:57:12.332Z,66.35
2017-11-16T23:59:39.907Z,62.75
